メインページ
METAR-TAF:

METAR-TAF

空港 :

キングストン, ジャマイカ

ノーマン・マンレー国際空港

緯度: 17-56N, 経度: 076-47W, 海抜: 3m

現時点の気象観測

当レポートは27分前の16:00(UTC)に作成
南東の風 17kt
気温 31°C
湿度 71%
気圧 1012 hPa
視程10km以上
高度2000ftの雲はほとんどない, 積乱雲.

METAR: MKJP 221600Z 13017KT 9999 FEW020CB 31/25 Q1012

時間: 11:27 (16:27 UTC)

予報

当レポートは5時間12分前の11:15(UTC)に作成
予報は22日の 12時(UTC)から 23日の 12時(UTC)まで有効
南東の風 20kt
視程: 9000m
高度2000ftの雲は散在している
にわか雨
22日の 18時(UTC)から 22日の 22時(UTC)まで一時的に
視程: 4000m
高度1800ftの千切れ雲あり
高度2000ftの雲は散在している, 積乱雲.
激しい雷雨, 雨
23日の 01時(UTC)から 23日の 03時(UTC)まで徐々に
の風 5kt
高度2000ftの雲は散在している

TAF: MKJP 221115Z 2212/2312 14020KT 9000 SHRA SCT020 TEMPO 2218/2222 4000 TSRA BKN018 SCT020CB BECMG 2301/2303 36005KT SCT020

4,000以上の空港の気象観測と天気予報(METAR報とTAF報)

利用可能な観測所は地図上に黄色い丸と赤い丸で示す。

丸の上にカーソルを重ねると観測所名を参照できる。

次にクリックすると気象観測と天気予報を参照できる。

マップの切り替え:黒色「×」印の緑ボタンをクリックして拡大、「-」印の緑ボタンをクリックして縮小、緑色の三角印をクリックして隣りの地図に切り替え


METAR-TAF: